Time;durP1;ratioP1;P1;durP2;ratioP2;P2;SDS_P1;SDS_P2;PMS_P1;PMS_P2;Temp;Humidity;BMP_temperature;BMP_pressure;BME280_temperature;BME280_humidity;BME280_pressure;Samples;Min_cycle;Max_cycle;Signal;HPM_P1;HPM_P2
2023/07/08 00:00:25;;;;;;;2.70;2.00;;;26.00;68.90;;;;;;5015007;28;20464;-72
2023/07/08 00:02:52;;;;;;;2.47;2.00;;;25.90;68.90;;;;;;5015302;28;20048;-72
2023/07/08 00:05:19;;;;;;;2.10;2.00;;;25.90;68.90;;;;;;5015136;28;20121;-73
2023/07/08 00:07:46;;;;;;;2.38;2.13;;;25.90;69.00;;;;;;5013951;28;20030;-73
2023/07/08 00:10:16;;;;;;;3.80;2.25;;;26.00;69.10;;;;;;5014968;28;20030;-72
2023/07/08 00:12:43;;;;;;;2.40;2.20;;;25.90;69.10;;;;;;5015120;28;20026;-73
2023/07/08 00:15:10;;;;;;;2.30;2.10;;;25.90;69.10;;;;;;5014972;28;20032;-72
2023/07/08 00:17:36;;;;;;;2.25;2.03;;;25.90;69.20;;;;;;5015130;28;20073;-73
2023/07/08 00:20:09;;;;;;;2.30;2.10;;;25.90;69.20;;;;;;5014986;28;20037;-72
2023/07/08 00:22:36;;;;;;;2.00;1.85;;;25.90;69.30;;;;;;5014999;28;20036;-72
2023/07/08 00:25:01;;;;;;;2.30;2.10;;;25.90;69.40;;;;;;5014957;28;20032;-72
2023/07/08 00:27:27;;;;;;;2.40;2.20;;;25.90;69.40;;;;;;5014877;28;20035;-72
2023/07/08 00:29:52;;;;;;;2.10;2.00;;;25.80;69.40;;;;;;5014498;28;20033;-72
2023/07/08 00:32:18;;;;;;;2.20;2.00;;;25.80;69.50;;;;;;5014701;28;20030;-72
2023/07/08 00:34:44;;;;;;;2.08;1.95;;;25.80;69.50;;;;;;5014446;28;20112;-73
2023/07/08 00:37:12;;;;;;;2.17;1.98;;;25.80;69.60;;;;;;5014921;28;20033;-71
2023/07/08 00:39:38;;;;;;;2.00;1.90;;;25.80;69.70;;;;;;5014546;28;20057;-72
2023/07/08 00:42:24;;;;;;;2.10;2.00;;;25.80;69.70;;;;;;5014558;28;20028;-72
2023/07/08 00:44:50;;;;;;;2.35;1.95;;;25.80;69.90;;;;;;5015010;28;20034;-72
2023/07/08 00:47:15;;;;;;;2.03;1.90;;;25.70;69.70;;;;;;5014586;28;20054;-73
2023/07/08 00:50:00;;;;;;;2.03;1.85;;;25.70;69.70;;;;;;5014456;28;20030;-72
2023/07/08 00:52:28;;;;;;;1.98;1.83;;;25.70;69.80;;;;;;5014597;28;20052;-72
2023/07/08 00:54:57;;;;;;;2.33;1.90;;;25.80;69.70;;;;;;5014292;28;20353;-72
2023/07/08 00:57:29;;;;;;;2.10;1.90;;;25.80;69.70;;;;;;5014663;28;20113;-72
2023/07/08 01:00:15;;;;;;;2.33;2.13;;;25.80;69.70;;;;;;5014014;28;20030;-72
2023/07/08 01:02:48;;;;;;;2.05;1.92;;;25.80;69.80;;;;;;5014293;28;20065;-72
2023/07/08 01:05:18;;;;;;;2.50;2.08;;;25.80;69.70;;;;;;5014242;28;20376;-72
2023/07/08 01:07:50;;;;;;;1.67;1.58;;;25.80;69.70;;;;;;5014392;28;20117;-72
2023/07/08 01:10:20;;;;;;;1.80;1.70;;;25.80;69.70;;;;;;5014213;28;20021;-72
2023/07/08 01:12:51;;;;;;;2.00;1.90;;;25.80;69.70;;;;;;5014328;28;20037;-72
2023/07/08 01:15:17;;;;;;;2.25;1.92;;;25.80;69.70;;;;;;5014050;28;20022;-72
2023/07/08 01:17:44;;;;;;;2.53;2.05;;;25.70;69.70;;;;;;5013701;28;20487;-73
2023/07/08 01:20:12;;;;;;;2.00;1.90;;;25.70;69.70;;;;;;5014335;28;20484;-72
2023/07/08 01:22:40;;;;;;;2.22;1.92;;;25.70;69.80;;;;;;5014039;28;20034;-73
2023/07/08 01:25:08;;;;;;;2.30;2.10;;;25.70;69.80;;;;;;5014122;28;20049;-72
2023/07/08 01:27:40;;;;;;;2.60;2.40;;;25.70;69.90;;;;;;5014014;28;20025;-72
2023/07/08 01:30:07;;;;;;;2.25;2.05;;;25.70;69.90;;;;;;4996378;28;20358;-72
2023/07/08 01:32:48;;;;;;;2.00;1.90;;;25.70;69.90;;;;;;5013852;28;20026;-72
2023/07/08 01:35:14;;;;;;;2.33;2.13;;;25.60;69.90;;;;;;5012761;28;20084;-72
2023/07/08 01:37:44;;;;;;;2.50;2.30;;;25.60;69.90;;;;;;5013612;28;20077;-72
2023/07/08 01:40:27;;;;;;;2.13;2.00;;;25.70;70.00;;;;;;5013748;28;20041;-72
2023/07/08 01:42:53;;;;;;;2.23;2.10;;;25.60;70.00;;;;;;5012762;28;20061;-72
2023/07/08 01:45:21;;;;;;;1.90;1.80;;;25.60;69.90;;;;;;5013805;28;20097;-72
2023/07/08 01:47:56;;;;;;;2.22;2.08;;;25.60;69.80;;;;;;5013887;28;20132;-72
2023/07/08 01:50:24;;;;;;;2.03;1.92;;;25.70;69.90;;;;;;5013935;28;20042;-72
2023/07/08 01:52:52;;;;;;;2.25;2.13;;;25.70;69.90;;;;;;5013794;28;20018;-72
2023/07/08 01:55:24;;;;;;;2.00;1.90;;;25.60;69.80;;;;;;5013443;28;20082;-72
2023/07/08 01:57:54;;;;;;;2.50;2.30;;;25.60;69.90;;;;;;5013830;28;20041;-72
2023/07/08 02:00:20;;;;;;;2.00;1.90;;;25.60;69.90;;;;;;5013750;28;20036;-72
2023/07/08 02:02:46;;;;;;;2.50;2.30;;;25.60;69.90;;;;;;5012177;28;20034;-72
2023/07/08 02:05:12;;;;;;;2.50;2.30;;;25.60;69.90;;;;;;5013481;28;20041;-72
2023/07/08 02:07:38;;;;;;;2.30;2.10;;;25.60;69.90;;;;;;5013540;28;20065;-73
2023/07/08 02:10:04;;;;;;;2.40;2.20;;;25.60;69.90;;;;;;5013784;28;20030;-72
2023/07/08 02:12:29;;;;;;;2.35;2.15;;;25.60;69.90;;;;;;5017332;28;20026;-72
2023/07/08 02:14:55;;;;;;;2.28;2.08;;;25.60;69.90;;;;;;5017313;28;20030;-72
2023/07/08 02:17:20;;;;;;;2.35;2.15;;;25.60;69.80;;;;;;5017071;28;20121;-72
2023/07/08 02:19:46;;;;;;;3.10;2.13;;;25.60;69.80;;;;;;5017238;28;20057;-72
2023/07/08 02:22:12;;;;;;;2.20;2.00;;;25.60;69.80;;;;;;5016904;28;20032;-72
2023/07/08 02:24:37;;;;;;;2.55;2.22;;;25.60;69.80;;;;;;5017364;28;20022;-72
2023/07/08 02:27:04;;;;;;;2.40;2.20;;;25.60;69.80;;;;;;5017101;28;20092;-72
2023/07/08 02:29:31;;;;;;;2.13;2.00;;;25.60;69.80;;;;;;5016964;28;20453;-73
2023/07/08 02:31:57;;;;;;;2.28;2.08;;;25.60;69.80;;;;;;5016995;28;20071;-73
2023/07/08 02:34:23;;;;;;;1.98;1.88;;;25.60;69.80;;;;;;5016755;28;20022;-72
2023/07/08 02:36:48;;;;;;;2.22;2.03;;;25.60;69.80;;;;;;5016537;28;20431;-72
2023/07/08 02:39:14;;;;;;;2.10;1.90;;;25.60;69.80;;;;;;5016820;28;20026;-72
2023/07/08 02:41:40;;;;;;;2.35;2.17;;;25.60;69.80;;;;;;5016761;28;20040;-73
2023/07/08 02:44:05;;;;;;;1.90;1.80;;;25.60;69.80;;;;;;5017086;28;20480;-72
2023/07/08 02:46:31;;;;;;;1.80;1.70;;;25.60;69.80;;;;;;5016840;28;20141;-72
2023/07/08 02:48:56;;;;;;;2.00;1.90;;;25.60;69.80;;;;;;5016742;28;20065;-72
2023/07/08 02:51:22;;;;;;;2.10;2.00;;;25.60;69.80;;;;;;5015301;28;20452;-72
2023/07/08 02:53:49;;;;;;;2.53;2.33;;;25.60;69.80;;;;;;5016674;28;20022;-72
2023/07/08 02:56:15;;;;;;;2.30;2.10;;;25.60;69.90;;;;;;5016764;28;20380;-72
2023/07/08 02:58:40;;;;;;;2.10;2.00;;;25.60;69.90;;;;;;5016483;28;20040;-72
2023/07/08 03:01:08;;;;;;;2.28;2.15;;;25.60;69.90;;;;;;5016484;28;20037;-72
2023/07/08 03:03:34;;;;;;;2.50;2.30;;;25.60;69.90;;;;;;5016458;28;20088;-72
2023/07/08 03:06:02;;;;;;;2.30;2.10;;;25.60;69.90;;;;;;5016067;28;20018;-72
2023/07/08 03:08:29;;;;;;;2.08;1.98;;;25.60;69.90;;;;;;5016274;28;20037;-72
2023/07/08 03:11:01;;;;;;;2.13;2.00;;;25.60;70.00;;;;;;5014977;28;20029;-72
2023/07/08 03:13:28;;;;;;;2.25;2.05;;;25.60;70.00;;;;;;5016228;28;20465;-72
2023/07/08 03:15:54;;;;;;;2.20;2.00;;;25.60;69.90;;;;;;5016051;28;20022;-72
2023/07/08 03:18:21;;;;;;;1.88;1.77;;;25.60;70.00;;;;;;5015797;28;20030;-73
2023/07/08 03:20:48;;;;;;;2.00;1.90;;;25.60;70.00;;;;;;5016087;28;20041;-73
2023/07/08 03:23:13;;;;;;;2.30;2.10;;;25.60;70.00;;;;;;5014720;28;20037;-72
2023/07/08 03:25:39;;;;;;;2.00;1.90;;;25.60;70.00;;;;;;5015931;28;20384;-73
2023/07/08 03:28:06;;;;;;;1.95;1.83;;;25.60;70.00;;;;;;5016002;28;20088;-72
2023/07/08 03:30:33;;;;;;;2.58;2.03;;;25.60;70.00;;;;;;5015896;28;20037;-72
2023/07/08 03:32:59;;;;;;;2.00;1.90;;;25.60;70.00;;;;;;5015648;28;20053;-72
2023/07/08 03:35:25;;;;;;;1.92;1.83;;;25.70;70.00;;;;;;5015878;28;20061;-72
2023/07/08 03:37:52;;;;;;;2.10;1.98;;;25.70;70.00;;;;;;5015692;28;20037;-72
2023/07/08 03:40:18;;;;;;;2.17;2.08;;;25.60;70.00;;;;;;5016018;28;20038;-73
2023/07/08 03:42:43;;;;;;;2.13;1.92;;;25.60;70.00;;;;;;5015846;28;20449;-73
2023/07/08 03:45:09;;;;;;;1.80;1.70;;;25.60;70.20;;;;;;5015640;28;20112;-72
2023/07/08 03:47:35;;;;;;;1.63;1.52;;;25.50;70.20;;;;;;5015163;28;20068;-72
2023/07/08 03:50:01;;;;;;;2.13;1.92;;;25.50;70.30;;;;;;5015780;28;20029;-73
2023/07/08 03:52:26;;;;;;;1.88;1.75;;;25.50;70.30;;;;;;5015844;28;20133;-72
2023/07/08 03:54:52;;;;;;;2.10;2.00;;;25.50;70.40;;;;;;5015323;28;20543;-73
2023/07/08 03:57:17;;;;;;;2.00;1.90;;;25.50;70.40;;;;;;5015431;28;20040;-73
2023/07/08 03:59:43;;;;;;;1.90;1.80;;;25.50;70.40;;;;;;5015267;28;20101;-72
2023/07/08 04:02:11;;;;;;;2.08;1.85;;;25.50;70.30;;;;;;5015241;28;20026;-73
2023/07/08 04:04:37;;;;;;;1.70;1.60;;;25.50;70.30;;;;;;5015549;28;20108;-73
2023/07/08 04:07:04;;;;;;;2.20;2.00;;;25.50;70.20;;;;;;5015603;28;20465;-73
2023/07/08 04:09:30;;;;;;;1.85;1.75;;;25.60;70.30;;;;;;5015008;28;20017;-73
2023/07/08 04:11:55;;;;;;;2.15;1.98;;;25.60;70.30;;;;;;5015157;28;20145;-73
2023/07/08 04:14:21;;;;;;;1.80;1.70;;;25.60;70.20;;;;;;5015128;28;20084;-73
2023/07/08 04:16:57;;;;;;;1.75;1.60;;;25.60;70.20;;;;;;5014679;28;20036;-73
2023/07/08 04:19:23;;;;;;;1.60;1.50;;;25.60;70.20;;;;;;5015080;28;20061;-72
2023/07/08 04:21:50;;;;;;;1.70;1.60;;;25.60;70.20;;;;;;5015181;28;20029;-73
2023/07/08 04:24:17;;;;;;;1.80;1.70;;;25.60;70.10;;;;;;5013527;28;20036;-73
2023/07/08 04:26:46;;;;;;;1.70;1.60;;;25.60;70.10;;;;;;5014907;28;20080;-73
2023/07/08 04:29:13;;;;;;;1.83;1.73;;;25.60;70.00;;;;;;5014553;28;20457;-73
2023/07/08 04:31:39;;;;;;;1.50;1.40;;;25.70;70.00;;;;;;5014530;28;20476;-73
2023/07/08 04:34:06;;;;;;;2.47;1.60;;;25.70;70.00;;;;;;5014555;28;20038;-73
2023/07/08 04:36:32;;;;;;;2.15;1.33;;;25.80;69.90;;;;;;5014530;28;20026;-72
2023/07/08 04:38:58;;;;;;;1.58;1.48;;;25.80;69.80;;;;;;5014713;28;20030;-73
2023/07/08 04:41:25;;;;;;;1.45;1.35;;;25.80;69.70;;;;;;5014586;28;20100;-73
2023/07/08 04:43:52;;;;;;;1.35;1.25;;;25.90;69.70;;;;;;5014726;28;20041;-72
2023/07/08 04:46:34;;;;;;;1.55;1.45;;;25.80;69.60;;;;;;5014282;28;20054;-73
2023/07/08 04:49:01;;;;;;;1.17;1.17;;;25.90;69.60;;;;;;5014450;28;20077;-73
2023/07/08 04:51:27;;;;;;;1.48;1.38;;;25.90;69.50;;;;;;5014448;28;20022;-73
2023/07/08 04:53:53;;;;;;;1.27;1.17;;;25.90;69.40;;;;;;5014548;28;20026;-72
2023/07/08 04:56:18;;;;;;;1.52;1.42;;;25.90;69.40;;;;;;5014080;28;20026;-73
2023/07/08 04:58:44;;;;;;;1.10;1.00;;;25.90;69.40;;;;;;5014316;28;20134;-73
2023/07/08 05:01:10;;;;;;;1.50;1.40;;;25.90;69.40;;;;;;5014041;28;20037;-73
2023/07/08 05:03:35;;;;;;;1.58;1.48;;;25.90;69.30;;;;;;5014192;28;20040;-73
2023/07/08 05:06:01;;;;;;;0.98;0.90;;;25.90;69.30;;;;;;5014148;28;20026;-73
2023/07/08 05:08:27;;;;;;;1.52;1.42;;;25.90;69.30;;;;;;5014308;28;20113;-73
2023/07/08 05:10:52;;;;;;;1.15;1.10;;;25.90;69.30;;;;;;5013867;28;20026;-73
2023/07/08 05:13:18;;;;;;;1.52;1.40;;;25.90;69.20;;;;;;5014192;28;20026;-73
2023/07/08 05:15:43;;;;;;;1.40;1.30;;;25.90;69.20;;;;;;5014203;28;20076;-73
2023/07/08 05:18:09;;;;;;;1.50;1.40;;;25.90;69.10;;;;;;5013893;28;20033;-74
2023/07/08 05:20:36;;;;;;;1.35;1.30;;;25.90;69.10;;;;;;5013914;28;20037;-73
2023/07/08 05:23:02;;;;;;;1.40;1.30;;;25.90;69.10;;;;;;5013878;28;20034;-73
2023/07/08 05:25:32;;;;;;;1.63;1.52;;;26.00;69.10;;;;;;5013948;28;20037;-73
2023/07/08 05:27:58;;;;;;;1.77;1.65;;;26.00;69.00;;;;;;5013976;28;20036;-73
2023/07/08 05:30:23;;;;;;;1.40;1.35;;;26.00;68.90;;;;;;5014470;28;20121;-72
2023/07/08 05:32:49;;;;;;;1.80;1.70;;;26.00;68.90;;;;;;5013981;28;20030;-73
2023/07/08 05:35:15;;;;;;;1.70;1.60;;;26.00;68.80;;;;;;5013920;28;20033;-73
2023/07/08 05:37:41;;;;;;;1.77;1.67;;;26.10;68.80;;;;;;5012214;28;20034;-73
2023/07/08 05:40:08;;;;;;;1.70;1.60;;;26.10;68.80;;;;;;5013532;28;20061;-73
2023/07/08 05:42:34;;;;;;;1.33;1.23;;;26.00;68.70;;;;;;5013928;28;20083;-73
2023/07/08 05:44:59;;;;;;;1.85;1.75;;;26.10;68.80;;;;;;5014176;28;20113;-73
2023/07/08 05:47:25;;;;;;;1.77;1.67;;;26.10;68.70;;;;;;5017700;28;20064;-73
2023/07/08 05:49:51;;;;;;;2.13;1.80;;;26.10;68.70;;;;;;5017713;28;20157;-73
2023/07/08 05:52:16;;;;;;;1.75;1.65;;;26.20;68.70;;;;;;5017714;28;20579;-73
2023/07/08 05:54:42;;;;;;;2.00;1.90;;;26.20;68.70;;;;;;5017545;28;20477;-73
2023/07/08 05:57:10;;;;;;;1.85;1.75;;;26.20;68.60;;;;;;5017295;28;20045;-73
2023/07/08 05:59:36;;;;;;;1.90;1.80;;;26.20;68.60;;;;;;5017450;28;20030;-73
2023/07/08 06:02:06;;;;;;;2.00;1.80;;;26.20;68.50;;;;;;5017483;28;20034;-73
2023/07/08 06:04:32;;;;;;;1.90;1.80;;;26.30;68.50;;;;;;5017540;28;20038;-73
2023/07/08 06:06:57;;;;;;;2.13;2.03;;;26.30;68.50;;;;;;5015948;28;20030;-73
2023/07/08 06:09:23;;;;;;;2.67;2.15;;;26.30;68.40;;;;;;5017015;28;20120;-73
2023/07/08 06:11:49;;;;;;;2.63;1.70;;;26.40;68.50;;;;;;5017474;28;20477;-73
2023/07/08 06:14:14;;;;;;;1.80;1.70;;;26.40;68.30;;;;;;5017422;28;20026;-72
2023/07/08 06:16:40;;;;;;;2.00;1.90;;;26.50;68.30;;;;;;5017193;28;20052;-73
2023/07/08 06:19:06;;;;;;;2.05;1.95;;;26.50;68.20;;;;;;5015960;28;20385;-72
2023/07/08 06:21:31;;;;;;;2.30;2.10;;;26.60;68.20;;;;;;5015728;28;20069;-72
2023/07/08 06:23:57;;;;;;;2.20;2.00;;;26.60;68.10;;;;;;5017006;28;20026;-72
2023/07/08 06:26:23;;;;;;;2.85;2.00;;;26.70;68.20;;;;;;5016938;28;20033;-72
2023/07/08 06:28:49;;;;;;;2.42;2.22;;;26.70;68.00;;;;;;5016937;28;20113;-72
2023/07/08 06:31:15;;;;;;;2.20;2.00;;;26.80;68.00;;;;;;5017293;28;20101;-71
2023/07/08 06:33:40;;;;;;;2.10;1.95;;;26.90;68.00;;;;;;5016896;28;20480;-72
2023/07/08 06:36:07;;;;;;;2.53;2.33;;;27.00;67.80;;;;;;5016708;28;20037;-72
2023/07/08 06:38:33;;;;;;;2.40;2.20;;;27.10;67.70;;;;;;5016763;28;20038;-72
2023/07/08 06:40:58;;;;;;;2.63;2.42;;;27.20;67.50;;;;;;5017184;28;20030;-72
2023/07/08 06:43:24;;;;;;;2.50;2.30;;;27.30;67.40;;;;;;5017002;28;20030;-72
2023/07/08 06:45:50;;;;;;;2.72;2.50;;;27.40;67.20;;;;;;5016536;28;20045;-72
2023/07/08 06:48:15;;;;;;;2.50;2.30;;;27.50;66.90;;;;;;5016822;28;20427;-73
2023/07/08 06:50:48;;;;;;;2.47;2.28;;;27.60;66.70;;;;;;5015124;28;20073;-73
2023/07/08 06:53:15;;;;;;;2.60;2.40;;;27.70;66.40;;;;;;5016372;28;20034;-72
2023/07/08 06:55:40;;;;;;;2.35;2.15;;;27.70;66.40;;;;;;5016603;28;20369;-73
2023/07/08 06:58:06;;;;;;;2.50;2.30;;;27.80;66.40;;;;;;5016328;28;20034;-73
2023/07/08 07:00:32;;;;;;;2.80;2.50;;;27.80;66.40;;;;;;5016574;28;20480;-72
2023/07/08 07:02:57;;;;;;;2.60;2.40;;;27.80;66.20;;;;;;5016342;28;20104;-73
2023/07/08 07:05:23;;;;;;;2.40;2.20;;;27.80;66.20;;;;;;5016263;28;20026;-73
2023/07/08 07:07:48;;;;;;;2.67;2.47;;;27.70;66.20;;;;;;5016003;28;20033;-73
2023/07/08 07:10:14;;;;;;;2.95;2.72;;;27.70;66.20;;;;;;5016460;28;20022;-72
2023/07/08 07:12:40;;;;;;;3.08;2.78;;;27.60;66.20;;;;;;5016302;28;20056;-73
2023/07/08 07:15:06;;;;;;;2.80;2.50;;;27.50;66.30;;;;;;5016083;28;20026;-72
2023/07/08 07:17:31;;;;;;;2.80;2.60;;;27.50;66.40;;;;;;5015911;28;20037;-73
2023/07/08 07:19:57;;;;;;;2.65;2.45;;;27.40;66.50;;;;;;5015990;28;20507;-72
2023/07/08 07:22:23;;;;;;;2.83;2.60;;;27.30;66.50;;;;;;5015572;28;20041;-74
2023/07/08 07:24:49;;;;;;;3.22;2.92;;;27.30;66.70;;;;;;5016265;28;20061;-74
2023/07/08 07:27:15;;;;;;;3.30;3.00;;;27.20;66.70;;;;;;5015839;28;20069;-72
2023/07/08 07:29:44;;;;;;;3.10;2.80;;;27.10;66.70;;;;;;5015730;28;20029;-72
2023/07/08 07:32:11;;;;;;;3.10;2.80;;;27.10;66.80;;;;;;5015996;28;20033;-72
2023/07/08 07:34:38;;;;;;;5.40;3.30;;;27.00;66.90;;;;;;5014037;28;20033;-72
2023/07/08 07:37:04;;;;;;;3.58;3.10;;;27.00;67.00;;;;;;5015490;28;20353;-73
2023/07/08 07:39:29;;;;;;;3.17;2.90;;;27.00;67.10;;;;;;5014430;28;20037;-72
2023/07/08 07:41:55;;;;;;;3.45;3.15;;;27.00;67.10;;;;;;5015540;28;20030;-72
2023/07/08 07:44:20;;;;;;;3.40;3.10;;;27.00;67.10;;;;;;5015674;28;20038;-73
2023/07/08 07:46:46;;;;;;;3.40;3.10;;;27.00;67.10;;;;;;5015482;28;20058;-73
2023/07/08 07:49:13;;;;;;;3.20;2.90;;;27.00;67.00;;;;;;5015404;28;20033;-73
2023/07/08 07:51:38;;;;;;;3.92;3.53;;;27.10;67.00;;;;;;5015691;28;20026;-73
2023/07/08 07:54:04;;;;;;;3.53;3.20;;;27.10;66.90;;;;;;5015356;28;20116;-73
2023/07/08 07:56:30;;;;;;;3.22;2.92;;;27.10;66.90;;;;;;5015443;28;20026;-74
2023/07/08 07:58:56;;;;;;;3.30;3.00;;;27.10;66.90;;;;;;5015069;28;20051;-73
2023/07/08 08:01:21;;;;;;;3.72;3.33;;;27.10;66.80;;;;;;5015057;28;20491;-73
2023/07/08 08:03:50;;;;;;;3.55;3.15;;;27.10;66.70;;;;;;5014861;28;20026;-73
2023/07/08 08:06:17;;;;;;;3.40;3.10;;;27.20;66.60;;;;;;5015184;28;20033;-73
2023/07/08 08:08:43;;;;;;;3.38;3.03;;;27.30;66.60;;;;;;5013154;28;20034;-73
2023/07/08 08:11:09;;;;;;;3.10;2.80;;;27.30;66.50;;;;;;5014017;28;20034;-74
2023/07/08 08:13:35;;;;;;;3.40;3.10;;;27.30;66.50;;;;;;5013687;28;20029;-73
2023/07/08 08:16:00;;;;;;;3.65;3.30;;;27.30;66.40;;;;;;5014836;28;20038;-73
2023/07/08 08:18:26;;;;;;;3.13;2.83;;;27.30;66.40;;;;;;5014700;28;20038;-73
2023/07/08 08:20:52;;;;;;;3.33;3.03;;;27.30;66.40;;;;;;5014846;28;20043;-73
2023/07/08 08:23:18;;;;;;;3.25;2.95;;;27.30;66.30;;;;;;5015186;28;20361;-73
2023/07/08 08:25:43;;;;;;;3.13;2.90;;;27.40;66.30;;;;;;5014620;28;20026;-73
2023/07/08 08:28:09;;;;;;;3.35;2.80;;;27.50;66.20;;;;;;5014672;28;20499;-73
2023/07/08 08:30:35;;;;;;;2.80;2.60;;;27.50;65.90;;;;;;5014786;28;20061;-72
2023/07/08 08:33:01;;;;;;;3.00;2.60;;;27.60;65.70;;;;;;5014771;28;20117;-73
2023/07/08 08:35:27;;;;;;;2.50;2.30;;;27.60;65.50;;;;;;5013342;28;20341;-73
2023/07/08 08:37:53;;;;;;;2.65;2.45;;;27.60;65.40;;;;;;5014626;28;20479;-73
2023/07/08 08:40:20;;;;;;;2.70;2.50;;;27.60;65.30;;;;;;5014438;28;20534;-74
2023/07/08 08:43:09;;;;;;;2.60;2.30;;;27.60;65.30;;;;;;5014707;28;20025;-73
2023/07/08 08:45:50;;;;;;;2.30;2.10;;;27.60;64.80;;;;;;5014261;28;20038;-73
2023/07/08 08:48:19;;;;;;;2.38;2.17;;;27.60;64.90;;;;;;5014389;28;20034;-72
2023/07/08 08:50:54;;;;;;;2.50;2.30;;;27.70;65.00;;;;;;5029460;28;20025;-74
2023/07/08 08:53:22;;;;;;;2.83;2.33;;;27.70;64.80;;;;;;5014211;28;20480;-72
2023/07/08 08:55:57;;;;;;;2.55;2.35;;;27.70;64.80;;;;;;5014116;28;20030;-73
2023/07/08 08:58:49;;;;;;;2.30;2.10;;;27.80;64.80;;;;;;5012856;28;20087;-73
2023/07/08 09:01:16;;;;;;;2.80;2.00;;;27.80;64.60;;;;;;5014485;28;20104;-73
2023/07/08 09:04:05;;;;;;;1.90;1.77;;;27.80;64.60;;;;;;5014286;28;20029;-72
2023/07/08 09:06:34;;;;;;;2.20;2.05;;;27.80;64.50;;;;;;5010738;28;20481;-72
2023/07/08 09:09:16;;;;;;;2.10;1.90;;;27.80;64.30;;;;;;5014338;28;20384;-72
2023/07/08 09:11:56;;;;;;;1.90;1.80;;;27.90;64.00;;;;;;5014194;28;20030;-72
2023/07/08 09:14:27;;;;;;;2.05;1.85;;;27.90;64.00;;;;;;5014006;28;20029;-73
2023/07/08 09:17:17;;;;;;;2.00;1.80;;;27.90;64.00;;;;;;5013670;28;20503;-73
2023/07/08 09:20:09;;;;;;;2.47;1.70;;;28.00;64.00;;;;;;5013972;28;20046;-73
2023/07/08 09:23:07;;;;;;;2.20;1.70;;;28.10;63.50;;;;;;5012591;28;20041;-73
2023/07/08 09:25:46;;;;;;;3.47;1.80;;;28.20;63.60;;;;;;5010591;28;20038;-73
2023/07/08 09:28:13;;;;;;;2.13;1.88;;;28.30;63.30;;;;;;5013775;28;20044;-73
2023/07/08 09:30:39;;;;;;;1.90;1.80;;;28.30;63.30;;;;;;5014068;28;20037;-73
2023/07/08 09:33:08;;;;;;;1.92;1.80;;;28.30;63.20;;;;;;5013921;28;20030;-73
2023/07/08 09:35:48;;;;;;;2.38;1.90;;;28.30;63.10;;;;;;5014028;28;20025;-73
2023/07/08 09:38:17;;;;;;;1.73;1.63;;;28.40;62.90;;;;;;5013759;28;20030;-73
2023/07/08 09:40:53;;;;;;;2.28;2.05;;;28.40;63.00;;;;;;5013968;28;20025;-73
2023/07/08 09:43:37;;;;;;;1.85;1.65;;;28.50;62.80;;;;;;5012882;28;20026;-73
2023/07/08 09:46:03;;;;;;;1.80;1.70;;;28.50;62.20;;;;;;5013510;28;20137;-73
2023/07/08 09:48:34;;;;;;;2.30;2.10;;;28.50;62.70;;;;;;5013796;28;20025;-73
2023/07/08 09:51:01;;;;;;;1.77;1.67;;;28.50;62.70;;;;;;5013446;28;20037;-73
2023/07/08 09:53:28;;;;;;;1.90;1.80;;;28.60;62.70;;;;;;5013502;28;20033;-73
2023/07/08 09:55:57;;;;;;;2.08;1.98;;;28.60;62.80;;;;;;5013430;28;20022;-73
2023/07/08 09:58:32;;;;;;;2.05;1.85;;;28.60;62.60;;;;;;5013235;28;20096;-73
2023/07/08 10:01:05;;;;;;;2.00;1.90;;;28.50;62.50;;;;;;5013815;28;20034;-73
2023/07/08 10:03:32;;;;;;;;;;;28.50;62.60;;;;;;5014200;28;20071;-73
2023/07/08 10:06:02;;;;;;;2.28;1.95;;;28.40;62.20;;;;;;5028884;28;19905;-73
2023/07/08 10:08:38;;;;;;;2.10;1.98;;;28.50;62.70;;;;;;5013774;28;20464;-73
2023/07/08 10:11:22;;;;;;;2.35;2.15;;;28.50;62.50;;;;;;5013172;28;20026;-73
2023/07/08 10:13:50;;;;;;;;;;;28.50;62.50;;;;;;5013827;28;20021;-73
2023/07/08 10:16:29;;;;;;;2.75;2.20;;;28.50;62.10;;;;;;5013424;28;19999;-73
2023/07/08 10:18:55;;;;;;;2.20;2.00;;;28.50;62.50;;;;;;5013003;28;20072;-74
2023/07/08 10:21:45;;;;;;;2.78;2.50;;;28.60;62.50;;;;;;5013191;28;20029;-73
2023/07/08 10:24:27;;;;;;;2.63;2.40;;;28.60;62.30;;;;;;5013347;28;20022;-73
2023/07/08 10:27:23;;;;;;;2.38;2.17;;;28.60;62.10;;;;;;5013296;28;20025;-73
2023/07/08 10:30:19;;;;;;;2.97;2.70;;;28.70;62.10;;;;;;5013142;28;20173;-73
2023/07/08 10:33:13;;;;;;;3.20;2.70;;;28.70;61.50;;;;;;5016017;28;20152;-73
2023/07/08 10:35:54;;;;;;;3.47;2.90;;;28.60;61.60;;;;;;5008979;28;20034;-73
2023/07/08 10:38:22;;;;;;;3.10;2.72;;;28.50;61.90;;;;;;5017273;28;20057;-73
2023/07/08 10:41:00;;;;;;;3.35;3.05;;;28.40;62.10;;;;;;5016657;28;20033;-73
2023/07/08 10:43:53;;;;;;;3.25;2.95;;;28.30;62.20;;;;;;5016588;28;20040;-73
2023/07/08 10:46:31;;;;;;;3.15;2.63;;;28.10;62.00;;;;;;5015225;28;20050;-73
2023/07/08 10:49:35;;;;;;;3.30;3.00;;;28.00;62.40;;;;;;5016517;28;20029;-73
2023/07/08 10:52:16;;;;;;;3.35;3.05;;;27.90;62.40;;;;;;5016530;28;20472;-73
2023/07/08 10:55:10;;;;;;;3.60;3.15;;;27.80;62.70;;;;;;5016191;28;20046;-73
2023/07/08 10:58:00;;;;;;;3.03;2.72;;;27.70;62.70;;;;;;5016522;28;20085;-74
2023/07/08 11:00:57;;;;;;;4.13;3.20;;;27.70;62.80;;;;;;5016441;28;20030;-74
2023/07/08 11:03:29;;;;;;;3.78;3.38;;;27.60;62.80;;;;;;5016558;28;20053;-73
2023/07/08 11:06:10;;;;;;;3.55;3.00;;;27.60;63.10;;;;;;5016239;28;20057;-74
2023/07/08 11:09:05;;;;;;;3.50;3.20;;;27.50;63.10;;;;;;5016359;28;20030;-74
2023/07/08 11:11:41;;;;;;;3.53;3.08;;;27.60;63.30;;;;;;5014564;28;20049;-72
2023/07/08 11:14:19;;;;;;;4.00;3.60;;;27.60;63.20;;;;;;5016420;28;20412;-72
2023/07/08 11:16:58;;;;;;;3.50;3.10;;;27.60;63.10;;;;;;5015987;28;20109;-72
2023/07/08 11:19:32;;;;;;;3.45;3.15;;;27.60;63.10;;;;;;5016322;28;20038;-72
2023/07/08 11:22:04;;;;;;;3.80;3.40;;;27.60;63.10;;;;;;5015651;28;20109;-73
2023/07/08 11:24:54;;;;;;;3.83;3.33;;;27.70;63.20;;;;;;5014343;28;20038;-72
2023/07/08 11:27:27;;;;;;;3.97;3.58;;;27.80;63.10;;;;;;5016110;28;20036;-73
2023/07/08 11:30:11;;;;;;;4.37;3.70;;;27.80;62.80;;;;;;5016021;28;20029;-73
2023/07/08 11:32:38;;;;;;;4.50;3.60;;;28.00;62.70;;;;;;5016148;28;20453;-73
2023/07/08 11:35:12;;;;;;;3.80;3.40;;;28.00;62.70;;;;;;5015798;28;20030;-72
2023/07/08 11:37:38;;;;;;;5.13;3.60;;;28.00;62.60;;;;;;5015461;28;20472;-73
2023/07/08 11:40:16;;;;;;;4.32;3.85;;;28.00;62.60;;;;;;5014516;28;20428;-72
2023/07/08 11:42:45;;;;;;;4.00;3.60;;;28.00;62.40;;;;;;5014606;28;20034;-72
2023/07/08 11:45:17;;;;;;;3.90;3.50;;;28.00;62.50;;;;;;5013944;28;20033;-73
2023/07/08 11:47:46;;;;;;;4.53;3.95;;;28.00;62.40;;;;;;5015742;28;20495;-73
2023/07/08 11:50:25;;;;;;;5.15;3.85;;;28.00;62.50;;;;;;5015674;28;20040;-73
2023/07/08 11:52:59;;;;;;;4.30;3.90;;;27.90;62.50;;;;;;5015362;28;20361;-73
2023/07/08 11:55:35;;;;;;;4.72;3.58;;;27.80;62.50;;;;;;5014240;28;20057;-73
2023/07/08 11:58:01;;;;;;;5.30;3.42;;;27.70;62.70;;;;;;5015384;28;20029;-73
2023/07/08 12:00:34;;;;;;;4.57;4.05;;;27.60;62.90;;;;;;5015173;28;20456;-73
2023/07/08 12:03:18;;;;;;;4.65;3.70;;;27.50;63.00;;;;;;5015485;28;20105;-73
2023/07/08 12:05:44;;;;;;;4.45;3.70;;;27.40;63.30;;;;;;5015127;28;20120;-73
2023/07/08 12:08:15;;;;;;;4.30;3.90;;;27.30;63.20;;;;;;5015305;28;20416;-73
2023/07/08 12:10:52;;;;;;;4.50;3.88;;;27.20;63.30;;;;;;5013732;28;20050;-72
2023/07/08 12:13:22;;;;;;;3.90;3.42;;;27.20;63.30;;;;;;5014904;28;20036;-73
2023/07/08 12:15:48;;;;;;;4.57;4.18;;;27.10;63.50;;;;;;5014937;28;20025;-73
2023/07/08 12:18:31;;;;;;;4.18;3.78;;;27.00;63.50;;;;;;5014962;28;20125;-74
2023/07/08 12:21:00;;;;;;;4.20;3.80;;;27.00;63.60;;;;;;5015171;28;20022;-73
2023/07/08 12:23:28;;;;;;;5.10;4.03;;;27.00;63.70;;;;;;5013644;28;20398;-73
2023/07/08 12:25:55;;;;;;;3.92;3.50;;;27.00;63.90;;;;;;5013742;28;20026;-73
2023/07/08 12:28:22;;;;;;;4.22;3.80;;;26.90;63.80;;;;;;5014677;28;20030;-73
2023/07/08 12:30:49;;;;;;;3.80;3.40;;;26.90;63.90;;;;;;5014365;28;20041;-73
2023/07/08 12:33:32;;;;;;;5.10;3.90;;;26.90;63.90;;;;;;5015171;28;20080;-74
2023/07/08 12:36:00;;;;;;;3.70;3.40;;;26.90;63.90;;;;;;5013546;28;20384;-74
2023/07/08 12:38:41;;;;;;;4.30;3.58;;;26.80;63.90;;;;;;5014477;28;20034;-73
2023/07/08 12:41:12;;;;;;;4.25;3.70;;;26.80;63.90;;;;;;5014358;28;20182;-73
2023/07/08 12:43:38;;;;;;;3.50;3.20;;;26.80;63.90;;;;;;5014499;28;20034;-74
2023/07/08 12:46:04;;;;;;;3.88;3.50;;;26.90;64.00;;;;;;5014033;28;20111;-73
2023/07/08 12:48:36;;;;;;;4.13;3.72;;;26.90;63.90;;;;;;5014476;28;20030;-73
2023/07/08 12:51:04;;;;;;;4.50;3.85;;;26.80;63.80;;;;;;5014540;28;20026;-74
2023/07/08 12:53:31;;;;;;;3.92;3.53;;;26.90;63.90;;;;;;5014061;28;20021;-73
2023/07/08 12:55:59;;;;;;;4.90;3.85;;;26.90;64.00;;;;;;5014173;28;20029;-74
2023/07/08 12:58:28;;;;;;;3.95;3.53;;;26.90;64.00;;;;;;5014343;28;20034;-73
2023/07/08 13:00:55;;;;;;;4.13;3.58;;;26.80;63.90;;;;;;5014318;28;20109;-73